sensor_id;sensor_type;location;lat;lon;timestamp;temperature;humidity
9776;DHT22;4927;52.472;13.108;2023-04-25T00:00:29;8.40;99.90
9776;DHT22;4927;52.472;13.108;2023-04-25T00:01:31;8.40;99.90
9776;DHT22;4927;52.472;13.108;2023-04-25T00:02:33;8.40;99.90
9776;DHT22;4927;52.472;13.108;2023-04-25T00:03:34;8.40;99.90
9776;DHT22;4927;52.472;13.108;2023-04-25T00:04:36;8.40;99.90
9776;DHT22;4927;52.472;13.108;2023-04-25T00:05:38;8.40;99.90
9776;DHT22;4927;52.472;13.108;2023-04-25T00:06:41;8.40;99.90
9776;DHT22;4927;52.472;13.108;2023-04-25T00:07:42;8.40;99.90
9776;DHT22;4927;52.472;13.108;2023-04-25T00:08:44;8.40;99.90
9776;DHT22;4927;52.472;13.108;2023-04-25T00:09:45;8.40;99.90
9776;DHT22;4927;52.472;13.108;2023-04-25T00:10:47;8.40;99.90
9776;DHT22;4927;52.472;13.108;2023-04-25T00:11:49;8.40;99.90
9776;DHT22;4927;52.472;13.108;2023-04-25T00:12:50;8.40;99.90
9776;DHT22;4927;52.472;13.108;2023-04-25T00:13:53;8.40;99.90
9776;DHT22;4927;52.472;13.108;2023-04-25T00:14:55;8.50;99.90
9776;DHT22;4927;52.472;13.108;2023-04-25T00:15:57;8.40;99.90
9776;DHT22;4927;52.472;13.108;2023-04-25T00:16:58;8.40;99.90
9776;DHT22;4927;52.472;13.108;2023-04-25T00:18:00;8.40;99.90
9776;DHT22;4927;52.472;13.108;2023-04-25T00:19:02;8.40;99.90
9776;DHT22;4927;52.472;13.108;2023-04-25T00:20:05;8.40;99.90
9776;DHT22;4927;52.472;13.108;2023-04-25T00:21:07;8.40;99.90
9776;DHT22;4927;52.472;13.108;2023-04-25T00:22:09;8.40;99.90
9776;DHT22;4927;52.472;13.108;2023-04-25T00:23:11;8.40;99.90
9776;DHT22;4927;52.472;13.108;2023-04-25T00:24:13;8.50;99.90
9776;DHT22;4927;52.472;13.108;2023-04-25T00:25:15;8.50;99.90
9776;DHT22;4927;52.472;13.108;2023-04-25T00:26:16;8.50;99.90
9776;DHT22;4927;52.472;13.108;2023-04-25T00:27:18;8.50;99.90
9776;DHT22;4927;52.472;13.108;2023-04-25T00:28:19;8.50;99.90
9776;DHT22;4927;52.472;13.108;2023-04-25T00:29:21;8.50;99.90
9776;DHT22;4927;52.472;13.108;2023-04-25T00:30:23;8.50;99.90
9776;DHT22;4927;52.472;13.108;2023-04-25T00:31:24;8.50;99.90
9776;DHT22;4927;52.472;13.108;2023-04-25T00:32:26;8.50;99.90
9776;DHT22;4927;52.472;13.108;2023-04-25T00:33:29;8.50;99.90
9776;DHT22;4927;52.472;13.108;2023-04-25T00:34:30;8.50;99.90
9776;DHT22;4927;52.472;13.108;2023-04-25T00:35:32;8.50;99.90
9776;DHT22;4927;52.472;13.108;2023-04-25T00:36:33;8.50;99.90
9776;DHT22;4927;52.472;13.108;2023-04-25T00:37:36;8.50;99.90
9776;DHT22;4927;52.472;13.108;2023-04-25T00:38:37;8.50;99.90
9776;DHT22;4927;52.472;13.108;2023-04-25T00:39:39;8.50;99.90
9776;DHT22;4927;52.472;13.108;2023-04-25T00:40:41;8.50;99.90
9776;DHT22;4927;52.472;13.108;2023-04-25T00:41:43;8.50;99.90
9776;DHT22;4927;52.472;13.108;2023-04-25T00:42:44;8.50;99.90
9776;DHT22;4927;52.472;13.108;2023-04-25T00:43:47;8.50;99.90
9776;DHT22;4927;52.472;13.108;2023-04-25T00:44:49;8.50;99.90
9776;DHT22;4927;52.472;13.108;2023-04-25T00:45:51;8.50;99.90
9776;DHT22;4927;52.472;13.108;2023-04-25T00:46:54;8.50;99.90
9776;DHT22;4927;52.472;13.108;2023-04-25T00:47:54;8.50;99.90
9776;DHT22;4927;52.472;13.108;2023-04-25T00:48:56;8.50;99.90
9776;DHT22;4927;52.472;13.108;2023-04-25T00:49:58;8.50;99.90
9776;DHT22;4927;52.472;13.108;2023-04-25T00:51:00;8.50;99.90
9776;DHT22;4927;52.472;13.108;2023-04-25T00:52:01;8.50;99.90
9776;DHT22;4927;52.472;13.108;2023-04-25T00:53:03;8.50;99.90
9776;DHT22;4927;52.472;13.108;2023-04-25T00:54:05;8.50;99.90
9776;DHT22;4927;52.472;13.108;2023-04-25T00:55:08;8.60;99.90
9776;DHT22;4927;52.472;13.108;2023-04-25T00:56:10;8.50;99.90
9776;DHT22;4927;52.472;13.108;2023-04-25T00:57:11;8.50;99.90
9776;DHT22;4927;52.472;13.108;2023-04-25T00:58:13;8.50;99.90
9776;DHT22;4927;52.472;13.108;2023-04-25T00:59:15;8.50;99.90
9776;DHT22;4927;52.472;13.108;2023-04-25T01:00:17;8.50;99.90
9776;DHT22;4927;52.472;13.108;2023-04-25T01:01:20;8.50;99.90
9776;DHT22;4927;52.472;13.108;2023-04-25T01:02:22;8.50;99.90
9776;DHT22;4927;52.472;13.108;2023-04-25T01:03:23;8.50;99.90
9776;DHT22;4927;52.472;13.108;2023-04-25T01:04:27;8.50;99.90
9776;DHT22;4927;52.472;13.108;2023-04-25T01:05:27;8.50;99.90
9776;DHT22;4927;52.472;13.108;2023-04-25T01:06:29;8.50;99.90
9776;DHT22;4927;52.472;13.108;2023-04-25T01:07:31;8.50;99.90
9776;DHT22;4927;52.472;13.108;2023-04-25T01:08:32;8.50;99.90
9776;DHT22;4927;52.472;13.108;2023-04-25T01:09:34;8.50;99.90
9776;DHT22;4927;52.472;13.108;2023-04-25T01:10:36;8.50;99.90
9776;DHT22;4927;52.472;13.108;2023-04-25T01:11:37;8.50;99.90
9776;DHT22;4927;52.472;13.108;2023-04-25T01:12:39;8.50;99.90
9776;DHT22;4927;52.472;13.108;2023-04-25T01:13:41;8.40;99.90
9776;DHT22;4927;52.472;13.108;2023-04-25T01:14:42;8.40;99.90
9776;DHT22;4927;52.472;13.108;2023-04-25T01:15:45;8.50;99.90
9776;DHT22;4927;52.472;13.108;2023-04-25T01:16:46;8.50;99.90
9776;DHT22;4927;52.472;13.108;2023-04-25T01:17:49;8.40;99.90
9776;DHT22;4927;52.472;13.108;2023-04-25T01:18:50;8.40;99.90
9776;DHT22;4927;52.472;13.108;2023-04-25T01:19:52;8.40;99.90
9776;DHT22;4927;52.472;13.108;2023-04-25T01:20:54;8.40;99.90
9776;DHT22;4927;52.472;13.108;2023-04-25T01:21:56;8.40;99.90
9776;DHT22;4927;52.472;13.108;2023-04-25T01:22:58;8.40;99.90
9776;DHT22;4927;52.472;13.108;2023-04-25T01:24:00;8.50;99.90
9776;DHT22;4927;52.472;13.108;2023-04-25T01:25:03;8.40;99.90
9776;DHT22;4927;52.472;13.108;2023-04-25T01:26:06;8.40;99.90
9776;DHT22;4927;52.472;13.108;2023-04-25T01:27:08;8.40;99.90
9776;DHT22;4927;52.472;13.108;2023-04-25T01:28:10;8.40;99.90
9776;DHT22;4927;52.472;13.108;2023-04-25T01:29:12;8.40;99.90
9776;DHT22;4927;52.472;13.108;2023-04-25T01:30:15;8.40;99.90
9776;DHT22;4927;52.472;13.108;2023-04-25T01:31:16;8.40;99.90
9776;DHT22;4927;52.472;13.108;2023-04-25T01:32:18;8.40;99.90
9776;DHT22;4927;52.472;13.108;2023-04-25T01:33:20;8.40;99.90
9776;DHT22;4927;52.472;13.108;2023-04-25T01:34:21;8.40;99.90
9776;DHT22;4927;52.472;13.108;2023-04-25T01:35:23;8.40;99.90
9776;DHT22;4927;52.472;13.108;2023-04-25T01:36:25;8.40;99.90
9776;DHT22;4927;52.472;13.108;2023-04-25T01:37:28;8.40;99.90
9776;DHT22;4927;52.472;13.108;2023-04-25T01:38:29;8.40;99.90
9776;DHT22;4927;52.472;13.108;2023-04-25T01:39:32;8.40;99.90
9776;DHT22;4927;52.472;13.108;2023-04-25T01:40:34;8.40;99.90
9776;DHT22;4927;52.472;13.108;2023-04-25T01:41:36;8.40;99.90
9776;DHT22;4927;52.472;13.108;2023-04-25T01:42:39;8.40;99.90
9776;DHT22;4927;52.472;13.108;2023-04-25T01:43:39;8.40;99.90
9776;DHT22;4927;52.472;13.108;2023-04-25T01:44:41;8.40;99.90
9776;DHT22;4927;52.472;13.108;2023-04-25T01:45:43;8.40;99.90
9776;DHT22;4927;52.472;13.108;2023-04-25T01:46:53;8.40;99.90
9776;DHT22;4927;52.472;13.108;2023-04-25T01:47:54;8.40;99.90
9776;DHT22;4927;52.472;13.108;2023-04-25T01:48:57;8.40;99.90
9776;DHT22;4927;52.472;13.108;2023-04-25T01:49:59;8.40;99.90
9776;DHT22;4927;52.472;13.108;2023-04-25T01:51:02;8.40;99.90
9776;DHT22;4927;52.472;13.108;2023-04-25T01:52:04;8.40;99.90
9776;DHT22;4927;52.472;13.108;2023-04-25T01:53:05;8.40;99.90
9776;DHT22;4927;52.472;13.108;2023-04-25T01:54:08;8.40;99.90
9776;DHT22;4927;52.472;13.108;2023-04-25T01:55:10;8.40;99.90
9776;DHT22;4927;52.472;13.108;2023-04-25T01:56:12;8.40;99.90
9776;DHT22;4927;52.472;13.108;2023-04-25T01:57:14;8.40;99.90
9776;DHT22;4927;52.472;13.108;2023-04-25T01:58:15;8.40;99.90
9776;DHT22;4927;52.472;13.108;2023-04-25T01:59:17;8.40;99.90
9776;DHT22;4927;52.472;13.108;2023-04-25T02:00:26;8.40;99.90
9776;DHT22;4927;52.472;13.108;2023-04-25T02:01:27;8.40;99.90
9776;DHT22;4927;52.472;13.108;2023-04-25T02:02:29;8.40;99.90
9776;DHT22;4927;52.472;13.108;2023-04-25T02:03:31;8.40;99.90
9776;DHT22;4927;52.472;13.108;2023-04-25T02:04:32;8.40;99.90
9776;DHT22;4927;52.472;13.108;2023-04-25T02:05:35;8.40;99.90
9776;DHT22;4927;52.472;13.108;2023-04-25T02:06:36;8.40;99.90
9776;DHT22;4927;52.472;13.108;2023-04-25T02:07:38;8.40;99.90
9776;DHT22;4927;52.472;13.108;2023-04-25T02:08:40;8.40;99.90
9776;DHT22;4927;52.472;13.108;2023-04-25T02:09:41;8.40;99.90
9776;DHT22;4927;52.472;13.108;2023-04-25T02:10:44;8.40;99.90
9776;DHT22;4927;52.472;13.108;2023-04-25T02:11:45;8.40;99.90
9776;DHT22;4927;52.472;13.108;2023-04-25T02:12:47;8.40;99.90
9776;DHT22;4927;52.472;13.108;2023-04-25T02:13:48;8.40;99.90
9776;DHT22;4927;52.472;13.108;2023-04-25T02:14:51;8.40;99.90
9776;DHT22;4927;52.472;13.108;2023-04-25T02:15:53;8.40;99.90
9776;DHT22;4927;52.472;13.108;2023-04-25T02:16:55;8.40;99.90
9776;DHT22;4927;52.472;13.108;2023-04-25T02:17:56;8.40;99.90
9776;DHT22;4927;52.472;13.108;2023-04-25T02:18:58;8.40;99.90
9776;DHT22;4927;52.472;13.108;2023-04-25T02:20:00;8.40;99.90
9776;DHT22;4927;52.472;13.108;2023-04-25T02:21:03;8.40;99.90
9776;DHT22;4927;52.472;13.108;2023-04-25T02:22:05;8.40;99.90
9776;DHT22;4927;52.472;13.108;2023-04-25T02:23:07;8.40;99.90
9776;DHT22;4927;52.472;13.108;2023-04-25T02:24:09;8.40;99.90
9776;DHT22;4927;52.472;13.108;2023-04-25T02:25:11;8.30;99.90
9776;DHT22;4927;52.472;13.108;2023-04-25T02:26:12;8.40;99.90
9776;DHT22;4927;52.472;13.108;2023-04-25T02:27:14;8.40;99.90
9776;DHT22;4927;52.472;13.108;2023-04-25T02:28:16;8.40;99.90
9776;DHT22;4927;52.472;13.108;2023-04-25T02:29:17;8.40;99.90
9776;DHT22;4927;52.472;13.108;2023-04-25T02:30:19;8.40;99.90
9776;DHT22;4927;52.472;13.108;2023-04-25T02:31:21;8.40;99.90
9776;DHT22;4927;52.472;13.108;2023-04-25T02:32:23;8.40;99.90
9776;DHT22;4927;52.472;13.108;2023-04-25T02:33:25;8.40;99.90
9776;DHT22;4927;52.472;13.108;2023-04-25T02:34:26;8.30;99.90
9776;DHT22;4927;52.472;13.108;2023-04-25T02:35:28;8.30;99.90
9776;DHT22;4927;52.472;13.108;2023-04-25T02:36:29;8.30;99.90
9776;DHT22;4927;52.472;13.108;2023-04-25T02:37:32;8.30;99.90
9776;DHT22;4927;52.472;13.108;2023-04-25T02:38:34;8.30;99.90
9776;DHT22;4927;52.472;13.108;2023-04-25T02:39:35;8.30;99.90
9776;DHT22;4927;52.472;13.108;2023-04-25T02:40:37;8.30;99.90
9776;DHT22;4927;52.472;13.108;2023-04-25T02:41:38;8.30;99.90
9776;DHT22;4927;52.472;13.108;2023-04-25T02:42:40;8.30;99.90
9776;DHT22;4927;52.472;13.108;2023-04-25T02:43:42;8.30;99.90
9776;DHT22;4927;52.472;13.108;2023-04-25T02:44:43;8.30;99.90
9776;DHT22;4927;52.472;13.108;2023-04-25T02:45:45;8.30;99.90
9776;DHT22;4927;52.472;13.108;2023-04-25T02:46:47;8.30;99.90
9776;DHT22;4927;52.472;13.108;2023-04-25T02:47:48;8.30;99.90
9776;DHT22;4927;52.472;13.108;2023-04-25T02:48:50;8.30;99.90
9776;DHT22;4927;52.472;13.108;2023-04-25T02:49:52;8.30;99.90
9776;DHT22;4927;52.472;13.108;2023-04-25T02:50:54;8.30;99.90
9776;DHT22;4927;52.472;13.108;2023-04-25T02:51:55;8.30;99.90
9776;DHT22;4927;52.472;13.108;2023-04-25T02:52:57;8.30;99.90
9776;DHT22;4927;52.472;13.108;2023-04-25T02:53:59;8.30;99.90
9776;DHT22;4927;52.472;13.108;2023-04-25T02:55:00;8.30;99.90
9776;DHT22;4927;52.472;13.108;2023-04-25T02:56:02;8.20;99.90
9776;DHT22;4927;52.472;13.108;2023-04-25T02:57:04;8.30;99.90
9776;DHT22;4927;52.472;13.108;2023-04-25T02:58:06;8.30;99.90
9776;DHT22;4927;52.472;13.108;2023-04-25T02:59:07;8.20;99.90
9776;DHT22;4927;52.472;13.108;2023-04-25T03:00:10;8.20;99.90
9776;DHT22;4927;52.472;13.108;2023-04-25T03:01:13;8.20;99.90
9776;DHT22;4927;52.472;13.108;2023-04-25T03:02:15;8.20;99.90
9776;DHT22;4927;52.472;13.108;2023-04-25T03:03:17;8.20;99.90
9776;DHT22;4927;52.472;13.108;2023-04-25T03:04:19;8.20;99.90
9776;DHT22;4927;52.472;13.108;2023-04-25T03:05:21;8.20;99.90
9776;DHT22;4927;52.472;13.108;2023-04-25T03:06:23;8.20;99.90
9776;DHT22;4927;52.472;13.108;2023-04-25T03:07:24;8.20;99.90
9776;DHT22;4927;52.472;13.108;2023-04-25T03:08:27;8.20;99.90
9776;DHT22;4927;52.472;13.108;2023-04-25T03:09:34;8.20;99.90
9776;DHT22;4927;52.472;13.108;2023-04-25T03:10:36;8.20;99.90
9776;DHT22;4927;52.472;13.108;2023-04-25T03:11:38;8.20;99.90
9776;DHT22;4927;52.472;13.108;2023-04-25T03:12:39;8.20;99.90
9776;DHT22;4927;52.472;13.108;2023-04-25T03:13:41;8.20;99.90
9776;DHT22;4927;52.472;13.108;2023-04-25T03:14:44;8.20;99.90
9776;DHT22;4927;52.472;13.108;2023-04-25T03:15:46;8.20;99.90
9776;DHT22;4927;52.472;13.108;2023-04-25T03:16:47;8.20;99.90
9776;DHT22;4927;52.472;13.108;2023-04-25T03:17:49;8.20;99.90
9776;DHT22;4927;52.472;13.108;2023-04-25T03:18:51;8.20;99.90
9776;DHT22;4927;52.472;13.108;2023-04-25T03:19:54;8.20;99.90
9776;DHT22;4927;52.472;13.108;2023-04-25T03:20:55;8.20;99.90
9776;DHT22;4927;52.472;13.108;2023-04-25T03:21:57;8.10;99.90
9776;DHT22;4927;52.472;13.108;2023-04-25T03:22:59;8.10;99.90
9776;DHT22;4927;52.472;13.108;2023-04-25T03:24:01;8.10;99.90
9776;DHT22;4927;52.472;13.108;2023-04-25T03:25:02;8.10;99.90
9776;DHT22;4927;52.472;13.108;2023-04-25T03:26:05;8.10;99.90
9776;DHT22;4927;52.472;13.108;2023-04-25T03:27:06;8.10;99.90
9776;DHT22;4927;52.472;13.108;2023-04-25T03:28:16;8.10;99.90
9776;DHT22;4927;52.472;13.108;2023-04-25T03:29:17;8.10;99.90
9776;DHT22;4927;52.472;13.108;2023-04-25T03:30:19;8.10;99.90
9776;DHT22;4927;52.472;13.108;2023-04-25T03:31:20;8.10;99.90
9776;DHT22;4927;52.472;13.108;2023-04-25T03:32:23;8.10;99.90
9776;DHT22;4927;52.472;13.108;2023-04-25T03:33:25;8.10;99.90
9776;DHT22;4927;52.472;13.108;2023-04-25T03:34:27;8.10;99.90
9776;DHT22;4927;52.472;13.108;2023-04-25T03:35:29;8.10;99.90
9776;DHT22;4927;52.472;13.108;2023-04-25T03:36:31;8.10;99.90
9776;DHT22;4927;52.472;13.108;2023-04-25T03:37:33;8.10;99.90
9776;DHT22;4927;52.472;13.108;2023-04-25T03:38:35;8.10;99.90
9776;DHT22;4927;52.472;13.108;2023-04-25T03:39:37;8.10;99.90
9776;DHT22;4927;52.472;13.108;2023-04-25T03:40:39;8.10;99.90
9776;DHT22;4927;52.472;13.108;2023-04-25T03:41:40;8.10;99.90
9776;DHT22;4927;52.472;13.108;2023-04-25T03:42:42;8.10;99.90
9776;DHT22;4927;52.472;13.108;2023-04-25T03:43:44;8.10;99.90
9776;DHT22;4927;52.472;13.108;2023-04-25T03:44:46;8.00;99.90
9776;DHT22;4927;52.472;13.108;2023-04-25T03:45:48;8.10;99.90
9776;DHT22;4927;52.472;13.108;2023-04-25T03:46:49;8.10;99.90
9776;DHT22;4927;52.472;13.108;2023-04-25T03:47:51;8.10;99.90
9776;DHT22;4927;52.472;13.108;2023-04-25T03:48:54;8.10;99.90
9776;DHT22;4927;52.472;13.108;2023-04-25T03:49:56;8.00;99.90
9776;DHT22;4927;52.472;13.108;2023-04-25T03:50:58;8.00;99.90
9776;DHT22;4927;52.472;13.108;2023-04-25T03:51:59;8.00;99.90
9776;DHT22;4927;52.472;13.108;2023-04-25T03:53:01;8.00;99.90
9776;DHT22;4927;52.472;13.108;2023-04-25T03:54:03;8.00;99.90
9776;DHT22;4927;52.472;13.108;2023-04-25T03:55:05;8.00;99.90
9776;DHT22;4927;52.472;13.108;2023-04-25T03:56:07;8.00;99.90
9776;DHT22;4927;52.472;13.108;2023-04-25T03:57:09;8.00;99.90
9776;DHT22;4927;52.472;13.108;2023-04-25T03:58:10;8.00;99.90
9776;DHT22;4927;52.472;13.108;2023-04-25T03:59:12;8.00;99.90
9776;DHT22;4927;52.472;13.108;2023-04-25T04:00:14;8.00;99.90
9776;DHT22;4927;52.472;13.108;2023-04-25T04:01:16;8.00;99.90
9776;DHT22;4927;52.472;13.108;2023-04-25T04:02:18;8.00;99.90
9776;DHT22;4927;52.472;13.108;2023-04-25T04:03:19;8.00;99.90
9776;DHT22;4927;52.472;13.108;2023-04-25T04:04:21;8.00;99.90
9776;DHT22;4927;52.472;13.108;2023-04-25T04:05:23;8.00;99.90
9776;DHT22;4927;52.472;13.108;2023-04-25T04:06:24;8.00;99.90
9776;DHT22;4927;52.472;13.108;2023-04-25T04:07:26;8.00;99.90
9776;DHT22;4927;52.472;13.108;2023-04-25T04:08:27;8.00;99.90
9776;DHT22;4927;52.472;13.108;2023-04-25T04:09:29;8.00;99.90
9776;DHT22;4927;52.472;13.108;2023-04-25T04:10:31;8.00;99.90
9776;DHT22;4927;52.472;13.108;2023-04-25T04:11:34;8.00;99.90
9776;DHT22;4927;52.472;13.108;2023-04-25T04:12:36;8.00;99.90
9776;DHT22;4927;52.472;13.108;2023-04-25T04:13:37;8.00;99.90
9776;DHT22;4927;52.472;13.108;2023-04-25T04:14:39;8.00;99.90
9776;DHT22;4927;52.472;13.108;2023-04-25T04:15:41;8.00;99.90
9776;DHT22;4927;52.472;13.108;2023-04-25T04:16:43;8.00;99.90
9776;DHT22;4927;52.472;13.108;2023-04-25T04:17:45;8.00;99.90
9776;DHT22;4927;52.472;13.108;2023-04-25T04:18:46;8.00;99.90
9776;DHT22;4927;52.472;13.108;2023-04-25T04:19:48;8.00;99.90
9776;DHT22;4927;52.472;13.108;2023-04-25T04:20:50;8.10;99.90
9776;DHT22;4927;52.472;13.108;2023-04-25T04:21:51;8.10;99.90
9776;DHT22;4927;52.472;13.108;2023-04-25T04:22:53;8.10;99.90
9776;DHT22;4927;52.472;13.108;2023-04-25T04:23:55;8.10;99.90
9776;DHT22;4927;52.472;13.108;2023-04-25T04:24:57;8.10;99.90
9776;DHT22;4927;52.472;13.108;2023-04-25T04:25:59;8.10;99.90
9776;DHT22;4927;52.472;13.108;2023-04-25T04:27:01;8.10;99.90
9776;DHT22;4927;52.472;13.108;2023-04-25T04:28:03;8.10;99.90
9776;DHT22;4927;52.472;13.108;2023-04-25T04:29:05;8.10;99.90
9776;DHT22;4927;52.472;13.108;2023-04-25T04:30:08;8.10;99.90
9776;DHT22;4927;52.472;13.108;2023-04-25T04:31:10;8.10;99.90
9776;DHT22;4927;52.472;13.108;2023-04-25T04:32:12;8.10;99.90
9776;DHT22;4927;52.472;13.108;2023-04-25T04:33:13;8.10;99.90
9776;DHT22;4927;52.472;13.108;2023-04-25T04:34:15;8.10;99.90
9776;DHT22;4927;52.472;13.108;2023-04-25T04:35:16;8.10;99.90
9776;DHT22;4927;52.472;13.108;2023-04-25T04:36:18;8.10;99.90
9776;DHT22;4927;52.472;13.108;2023-04-25T04:37:20;8.10;99.90
9776;DHT22;4927;52.472;13.108;2023-04-25T04:38:21;8.10;99.90
9776;DHT22;4927;52.472;13.108;2023-04-25T04:39:24;8.20;99.90
9776;DHT22;4927;52.472;13.108;2023-04-25T04:40:25;8.20;99.90
9776;DHT22;4927;52.472;13.108;2023-04-25T04:41:28;8.20;99.90
9776;DHT22;4927;52.472;13.108;2023-04-25T04:42:29;8.20;99.90
9776;DHT22;4927;52.472;13.108;2023-04-25T04:43:31;8.20;99.90
9776;DHT22;4927;52.472;13.108;2023-04-25T04:44:33;8.20;99.90
9776;DHT22;4927;52.472;13.108;2023-04-25T04:45:35;8.20;99.90
9776;DHT22;4927;52.472;13.108;2023-04-25T04:46:37;8.20;99.90
9776;DHT22;4927;52.472;13.108;2023-04-25T04:47:38;8.30;99.90
9776;DHT22;4927;52.472;13.108;2023-04-25T04:48:40;8.20;99.90
9776;DHT22;4927;52.472;13.108;2023-04-25T04:49:42;8.20;99.90
9776;DHT22;4927;52.472;13.108;2023-04-25T04:50:44;8.30;99.90
9776;DHT22;4927;52.472;13.108;2023-04-25T04:51:46;8.30;99.90
9776;DHT22;4927;52.472;13.108;2023-04-25T04:52:48;8.30;99.90
9776;DHT22;4927;52.472;13.108;2023-04-25T04:53:50;8.30;99.90
9776;DHT22;4927;52.472;13.108;2023-04-25T04:54:51;8.30;99.90
9776;DHT22;4927;52.472;13.108;2023-04-25T04:55:54;8.30;99.90
9776;DHT22;4927;52.472;13.108;2023-04-25T04:56:55;8.30;99.90
9776;DHT22;4927;52.472;13.108;2023-04-25T04:57:57;8.30;99.90
9776;DHT22;4927;52.472;13.108;2023-04-25T04:58:58;8.30;99.90
9776;DHT22;4927;52.472;13.108;2023-04-25T05:00:00;8.30;99.90
9776;DHT22;4927;52.472;13.108;2023-04-25T05:01:02;8.30;99.90
9776;DHT22;4927;52.472;13.108;2023-04-25T05:02:03;8.30;99.90
9776;DHT22;4927;52.472;13.108;2023-04-25T05:03:05;8.30;99.90
9776;DHT22;4927;52.472;13.108;2023-04-25T05:04:07;8.30;99.90
9776;DHT22;4927;52.472;13.108;2023-04-25T05:05:08;8.30;99.90
9776;DHT22;4927;52.472;13.108;2023-04-25T05:06:10;8.30;99.90
9776;DHT22;4927;52.472;13.108;2023-04-25T05:07:12;8.40;99.90
9776;DHT22;4927;52.472;13.108;2023-04-25T05:08:21;8.40;99.90
9776;DHT22;4927;52.472;13.108;2023-04-25T05:09:22;8.30;99.90
9776;DHT22;4927;52.472;13.108;2023-04-25T05:10:25;8.40;99.90
9776;DHT22;4927;52.472;13.108;2023-04-25T05:11:26;8.40;99.90
9776;DHT22;4927;52.472;13.108;2023-04-25T05:12:28;8.40;99.90
9776;DHT22;4927;52.472;13.108;2023-04-25T05:13:29;8.40;99.90
9776;DHT22;4927;52.472;13.108;2023-04-25T05:14:31;8.40;99.90
9776;DHT22;4927;52.472;13.108;2023-04-25T05:15:33;8.40;99.90
9776;DHT22;4927;52.472;13.108;2023-04-25T05:16:34;8.40;99.90
9776;DHT22;4927;52.472;13.108;2023-04-25T05:17:36;8.50;99.90
9776;DHT22;4927;52.472;13.108;2023-04-25T05:18:38;8.50;99.90
9776;DHT22;4927;52.472;13.108;2023-04-25T05:19:39;8.50;99.90
9776;DHT22;4927;52.472;13.108;2023-04-25T05:20:41;8.50;99.90
9776;DHT22;4927;52.472;13.108;2023-04-25T05:21:44;8.50;99.90
9776;DHT22;4927;52.472;13.108;2023-04-25T05:22:46;8.50;99.90
9776;DHT22;4927;52.472;13.108;2023-04-25T05:23:51;8.50;99.90
9776;DHT22;4927;52.472;13.108;2023-04-25T05:24:53;8.60;99.90
9776;DHT22;4927;52.472;13.108;2023-04-25T05:25:55;8.60;99.90
9776;DHT22;4927;52.472;13.108;2023-04-25T05:26:57;8.50;99.90
9776;DHT22;4927;52.472;13.108;2023-04-25T05:27:58;8.60;99.90
9776;DHT22;4927;52.472;13.108;2023-04-25T05:29:00;8.60;99.90
9776;DHT22;4927;52.472;13.108;2023-04-25T05:30:02;8.60;99.90
9776;DHT22;4927;52.472;13.108;2023-04-25T05:31:05;8.60;99.90
9776;DHT22;4927;52.472;13.108;2023-04-25T05:32:07;8.60;99.90
9776;DHT22;4927;52.472;13.108;2023-04-25T05:33:08;8.60;99.90
9776;DHT22;4927;52.472;13.108;2023-04-25T05:34:11;8.60;99.90
9776;DHT22;4927;52.472;13.108;2023-04-25T05:35:12;8.60;99.90
9776;DHT22;4927;52.472;13.108;2023-04-25T05:36:14;8.60;99.90
9776;DHT22;4927;52.472;13.108;2023-04-25T05:37:15;8.60;99.90
9776;DHT22;4927;52.472;13.108;2023-04-25T05:38:17;8.60;99.90
9776;DHT22;4927;52.472;13.108;2023-04-25T05:39:19;8.60;99.90
9776;DHT22;4927;52.472;13.108;2023-04-25T05:40:20;8.60;99.90
9776;DHT22;4927;52.472;13.108;2023-04-25T05:41:22;8.60;99.90
9776;DHT22;4927;52.472;13.108;2023-04-25T05:42:24;8.70;99.90
9776;DHT22;4927;52.472;13.108;2023-04-25T05:43:27;8.70;99.90
9776;DHT22;4927;52.472;13.108;2023-04-25T05:44:29;8.70;99.90
9776;DHT22;4927;52.472;13.108;2023-04-25T05:45:31;8.70;99.90
9776;DHT22;4927;52.472;13.108;2023-04-25T05:46:33;8.70;99.90
9776;DHT22;4927;52.472;13.108;2023-04-25T05:47:35;8.70;99.90
9776;DHT22;4927;52.472;13.108;2023-04-25T05:48:37;8.70;99.90
9776;DHT22;4927;52.472;13.108;2023-04-25T05:49:38;8.70;99.90
9776;DHT22;4927;52.472;13.108;2023-04-25T05:50:40;8.70;99.90
9776;DHT22;4927;52.472;13.108;2023-04-25T05:51:42;8.70;99.90
9776;DHT22;4927;52.472;13.108;2023-04-25T05:52:44;8.70;99.90
9776;DHT22;4927;52.472;13.108;2023-04-25T05:53:45;8.80;99.90
9776;DHT22;4927;52.472;13.108;2023-04-25T05:54:48;8.80;99.90
9776;DHT22;4927;52.472;13.108;2023-04-25T05:55:49;8.80;99.90
9776;DHT22;4927;52.472;13.108;2023-04-25T05:56:51;8.80;99.90
9776;DHT22;4927;52.472;13.108;2023-04-25T05:57:53;8.90;99.90
9776;DHT22;4927;52.472;13.108;2023-04-25T05:58:54;8.90;99.90
9776;DHT22;4927;52.472;13.108;2023-04-25T05:59:56;8.90;99.90
9776;DHT22;4927;52.472;13.108;2023-04-25T06:00:57;8.90;99.90
9776;DHT22;4927;52.472;13.108;2023-04-25T06:02:00;8.90;99.90
9776;DHT22;4927;52.472;13.108;2023-04-25T06:03:02;8.90;99.90
9776;DHT22;4927;52.472;13.108;2023-04-25T06:04:04;8.90;99.90
9776;DHT22;4927;52.472;13.108;2023-04-25T06:05:06;8.90;99.90
9776;DHT22;4927;52.472;13.108;2023-04-25T06:06:08;9.00;99.90
9776;DHT22;4927;52.472;13.108;2023-04-25T06:07:10;9.00;99.90
9776;DHT22;4927;52.472;13.108;2023-04-25T06:08:11;9.00;99.90
9776;DHT22;4927;52.472;13.108;2023-04-25T06:09:13;9.00;99.90
9776;DHT22;4927;52.472;13.108;2023-04-25T06:10:15;9.00;99.90
9776;DHT22;4927;52.472;13.108;2023-04-25T06:11:16;9.00;99.90
9776;DHT22;4927;52.472;13.108;2023-04-25T06:12:18;9.00;99.90
9776;DHT22;4927;52.472;13.108;2023-04-25T06:13:20;9.00;99.90
9776;DHT22;4927;52.472;13.108;2023-04-25T06:14:22;9.00;99.90
9776;DHT22;4927;52.472;13.108;2023-04-25T06:15:24;9.00;99.90
9776;DHT22;4927;52.472;13.108;2023-04-25T06:16:26;9.00;99.90
9776;DHT22;4927;52.472;13.108;2023-04-25T06:17:28;9.00;99.90
9776;DHT22;4927;52.472;13.108;2023-04-25T06:18:29;9.00;99.90
9776;DHT22;4927;52.472;13.108;2023-04-25T06:19:32;8.90;99.90
9776;DHT22;4927;52.472;13.108;2023-04-25T06:20:34;8.90;99.90
9776;DHT22;4927;52.472;13.108;2023-04-25T06:21:35;8.90;99.90
9776;DHT22;4927;52.472;13.108;2023-04-25T06:22:37;8.90;99.90
9776;DHT22;4927;52.472;13.108;2023-04-25T06:23:38;8.90;99.90
9776;DHT22;4927;52.472;13.108;2023-04-25T06:24:40;8.90;99.90
9776;DHT22;4927;52.472;13.108;2023-04-25T06:25:42;8.90;99.90
9776;DHT22;4927;52.472;13.108;2023-04-25T06:26:44;9.00;99.90
9776;DHT22;4927;52.472;13.108;2023-04-25T06:27:46;8.90;99.90
9776;DHT22;4927;52.472;13.108;2023-04-25T06:28:47;8.90;99.90
9776;DHT22;4927;52.472;13.108;2023-04-25T06:29:49;9.00;99.90
9776;DHT22;4927;52.472;13.108;2023-04-25T06:30:51;9.00;99.90
9776;DHT22;4927;52.472;13.108;2023-04-25T06:31:52;9.00;99.90
9776;DHT22;4927;52.472;13.108;2023-04-25T06:32:55;9.00;99.90
9776;DHT22;4927;52.472;13.108;2023-04-25T06:33:57;9.00;99.90
9776;DHT22;4927;52.472;13.108;2023-04-25T06:34:59;9.00;99.90
9776;DHT22;4927;52.472;13.108;2023-04-25T06:36:00;9.00;99.90
9776;DHT22;4927;52.472;13.108;2023-04-25T06:37:02;9.00;99.90
9776;DHT22;4927;52.472;13.108;2023-04-25T06:38:04;9.00;99.90
9776;DHT22;4927;52.472;13.108;2023-04-25T06:39:06;9.00;99.90
9776;DHT22;4927;52.472;13.108;2023-04-25T06:40:09;9.00;99.90
9776;DHT22;4927;52.472;13.108;2023-04-25T06:41:10;9.00;99.90
9776;DHT22;4927;52.472;13.108;2023-04-25T06:42:13;8.90;99.90
9776;DHT22;4927;52.472;13.108;2023-04-25T06:43:14;8.90;99.90
9776;DHT22;4927;52.472;13.108;2023-04-25T06:44:16;8.90;99.90